createdAt,value
2018-09-16T00:01:59.202Z,89.36
2018-09-16T00:04:28.589Z,89.84
2018-09-16T00:06:57.976Z,89.49
2018-09-16T00:09:27.330Z,89.14
2018-09-16T00:11:56.727Z,90.02
2018-09-16T00:14:26.210Z,89.24
2018-09-16T00:16:55.570Z,89.86
2018-09-16T00:19:25.000Z,89.98
2018-09-16T00:21:54.381Z,89.57
2018-09-16T00:24:23.750Z,90.60
2018-09-16T00:26:53.127Z,90.96
2018-09-16T00:29:22.506Z,90.76
2018-09-16T00:31:57.194Z,90.10
2018-09-16T00:34:26.592Z,90.41
2018-09-16T00:36:55.954Z,90.28
2018-09-16T00:39:25.339Z,90.76
2018-09-16T00:41:54.698Z,90.76
2018-09-16T00:44:24.056Z,90.06
2018-09-16T00:46:53.438Z,90.64
2018-09-16T00:49:22.807Z,89.78
2018-09-16T00:51:52.194Z,89.76
2018-09-16T00:54:21.574Z,90.87
2018-09-16T00:56:50.922Z,90.71
2018-09-16T00:59:20.294Z,90.52
2018-09-16T01:01:49.743Z,89.70
2018-09-16T01:04:19.139Z,90.11
2018-09-16T01:06:48.538Z,90.91
2018-09-16T01:09:17.904Z,92.02
2018-09-16T01:11:47.274Z,90.76
2018-09-16T01:14:16.637Z,90.49
2018-09-16T01:16:46.006Z,90.40
2018-09-16T01:19:15.413Z,90.09
2018-09-16T01:21:44.778Z,90.33
2018-09-16T01:24:14.162Z,91.09
2018-09-16T01:26:43.557Z,90.79
2018-09-16T01:29:12.938Z,90.51
2018-09-16T01:31:42.311Z,90.23
2018-09-16T01:34:11.669Z,89.88
2018-09-16T01:36:41.018Z,90.60
2018-09-16T01:39:10.410Z,90.45
2018-09-16T01:41:39.758Z,91.04
2018-09-16T01:44:09.129Z,91.33
2018-09-16T01:46:39.570Z,90.99
2018-09-16T01:49:08.946Z,91.19
2018-09-16T01:51:39.562Z,90.98
2018-09-16T01:54:08.918Z,90.92
2018-09-16T01:56:39.551Z,91.50
2018-09-16T01:59:08.900Z,91.76
2018-09-16T02:01:39.508Z,91.14
2018-09-16T02:04:08.878Z,91.88
2018-09-16T02:06:39.480Z,91.62
2018-09-16T02:09:09.435Z,91.46
2018-09-16T02:11:39.531Z,91.71
2018-09-16T02:14:08.981Z,92.44
2018-09-16T02:16:39.581Z,92.61
2018-09-16T02:19:08.969Z,92.47
2018-09-16T02:21:39.562Z,92.15
2018-09-16T02:24:08.959Z,92.76
2018-09-16T02:26:39.550Z,93.19
2018-09-16T02:29:08.936Z,92.92
2018-09-16T02:31:39.542Z,92.08
2018-09-16T02:34:08.920Z,92.55
2018-09-16T02:36:39.518Z,92.79
2018-09-16T02:39:09.500Z,92.95
2018-09-16T02:41:39.511Z,92.58
2018-09-16T02:44:08.898Z,92.54
2018-09-16T02:46:38.258Z,93.15
2018-09-16T02:49:07.618Z,92.93
2018-09-16T02:51:36.983Z,92.91
2018-09-16T02:54:06.334Z,92.62
2018-09-16T02:56:35.702Z,93.10
2018-09-16T02:59:05.054Z,92.60
2018-09-16T03:01:34.426Z,93.06
2018-09-16T03:04:03.866Z,92.91
2018-09-16T03:06:34.030Z,93.14
2018-09-16T03:09:05.420Z,92.82
2018-09-16T03:11:34.853Z,92.77
2018-09-16T03:14:04.130Z,93.07
2018-09-16T03:16:33.502Z,93.13
2018-09-16T03:19:02.888Z,92.85
2018-09-16T03:21:32.248Z,93.12
2018-09-16T03:24:01.615Z,93.69
2018-09-16T03:26:31.005Z,93.98
2018-09-16T03:29:00.363Z,93.95
2018-09-16T03:31:29.728Z,93.73
2018-09-16T03:33:59.107Z,93.46
2018-09-16T03:36:28.451Z,93.52
2018-09-16T03:38:57.913Z,92.45
2018-09-16T03:41:27.282Z,92.84
2018-09-16T03:43:56.659Z,92.64
2018-09-16T03:46:26.002Z,92.88
2018-09-16T03:48:55.366Z,92.93
2018-09-16T03:51:24.734Z,93.23
2018-09-16T03:53:54.234Z,93.46
2018-09-16T03:56:23.682Z,92.94
2018-09-16T03:58:53.059Z,94.17
2018-09-16T04:01:22.434Z,93.96
2018-09-16T04:03:51.815Z,93.59
2018-09-16T04:06:21.165Z,93.43
2018-09-16T04:08:50.563Z,92.90
2018-09-16T04:11:19.932Z,93.93
2018-09-16T04:13:49.297Z,93.85
2018-09-16T04:16:18.670Z,94.05
2018-09-16T04:18:48.025Z,93.76
2018-09-16T04:21:17.380Z,93.27
2018-09-16T04:23:47.693Z,93.52
2018-09-16T04:26:18.229Z,93.09
2018-09-16T04:28:47.791Z,92.73
2018-09-16T04:31:17.374Z,92.74
2018-09-16T04:33:47.222Z,93.59
2018-09-16T04:36:16.912Z,93.46
2018-09-16T04:38:46.291Z,92.99
2018-09-16T04:41:15.656Z,92.91
2018-09-16T04:43:45.114Z,92.93
2018-09-16T04:46:14.498Z,92.95
2018-09-16T04:48:43.870Z,92.71
2018-09-16T04:51:13.221Z,92.45
2018-09-16T04:53:43.007Z,92.04
2018-09-16T04:56:12.355Z,92.06
2018-09-16T04:58:41.706Z,92.60
2018-09-16T05:01:11.241Z,92.68
2018-09-16T05:03:40.554Z,92.71
2018-09-16T05:06:09.927Z,92.92
2018-09-16T05:08:39.298Z,92.94
2018-09-16T05:11:08.663Z,93.41
2018-09-16T05:13:38.105Z,92.80
2018-09-16T05:16:07.658Z,92.07
2018-09-16T05:18:37.014Z,92.66
2018-09-16T05:21:06.599Z,92.70
2018-09-16T05:23:36.002Z,92.85
2018-09-16T05:26:05.373Z,92.72
2018-09-16T05:28:34.733Z,92.87
2018-09-16T05:31:04.110Z,93.24
2018-09-16T05:33:33.482Z,93.22
2018-09-16T05:36:02.878Z,93.22
2018-09-16T05:38:32.330Z,93.63
2018-09-16T05:41:01.732Z,93.52
2018-09-16T05:43:31.104Z,94.06
2018-09-16T05:46:00.469Z,93.40
2018-09-16T05:48:29.831Z,92.52
2018-09-16T05:50:59.211Z,93.04
2018-09-16T05:53:28.723Z,92.56
2018-09-16T05:55:57.963Z,91.92
2018-09-16T05:58:27.358Z,91.98
2018-09-16T06:00:56.737Z,91.55
2018-09-16T06:03:26.108Z,91.65
2018-09-16T06:05:55.474Z,91.66
2018-09-16T06:08:24.838Z,91.89
2018-09-16T06:10:54.257Z,91.86
2018-09-16T06:13:23.586Z,91.91
2018-09-16T06:15:52.934Z,91.78
2018-09-16T06:18:22.286Z,91.06
2018-09-16T06:20:51.766Z,90.59
2018-09-16T06:23:21.109Z,90.98
2018-09-16T06:25:50.470Z,91.09
2018-09-16T06:28:19.966Z,90.82
2018-09-16T06:30:49.322Z,90.87
2018-09-16T06:33:18.706Z,90.76
2018-09-16T06:35:48.108Z,89.95
2018-09-16T06:38:17.551Z,89.77
2018-09-16T06:40:46.906Z,89.80
2018-09-16T06:43:16.427Z,89.88
2018-09-16T06:45:45.858Z,89.52
2018-09-16T06:48:15.292Z,89.52
2018-09-16T06:50:44.702Z,90.69
2018-09-16T06:53:14.199Z,90.17
2018-09-16T06:55:43.581Z,90.27
2018-09-16T06:58:13.327Z,89.97
2018-09-16T07:00:43.071Z,89.62
2018-09-16T07:03:12.671Z,89.13
2018-09-16T07:05:42.398Z,89.05
2018-09-16T07:08:11.826Z,87.53
2018-09-16T07:10:41.234Z,87.16
2018-09-16T07:13:10.597Z,86.86
2018-09-16T07:15:39.954Z,86.70
2018-09-16T07:18:09.329Z,86.08
2018-09-16T07:20:38.708Z,85.34
2018-09-16T07:23:08.081Z,85.29
2018-09-16T07:25:37.492Z,84.88
2018-09-16T07:28:06.902Z,84.93
2018-09-16T07:30:36.267Z,84.66
2018-09-16T07:33:05.674Z,84.14
2018-09-16T07:35:35.030Z,83.52
2018-09-16T07:38:04.483Z,82.90
2018-09-16T07:40:33.890Z,82.18
2018-09-16T07:43:03.266Z,82.87
2018-09-16T07:45:32.634Z,83.01
2018-09-16T07:48:02.032Z,82.19
2018-09-16T07:50:31.402Z,81.94
2018-09-16T07:53:00.955Z,81.84
2018-09-16T07:55:30.281Z,81.61
2018-09-16T07:57:59.710Z,81.31
2018-09-16T08:00:29.128Z,80.50
2018-09-16T08:02:58.506Z,80.08
2018-09-16T08:05:27.878Z,78.93
2018-09-16T08:07:57.227Z,79.42
2018-09-16T08:10:26.612Z,78.70
2018-09-16T08:12:55.974Z,78.13
2018-09-16T08:15:25.334Z,78.43
2018-09-16T08:17:54.738Z,77.82
2018-09-16T08:20:24.124Z,76.78
2018-09-16T08:22:53.497Z,77.07
2018-09-16T08:25:22.938Z,75.76
2018-09-16T08:27:52.300Z,74.09
2018-09-16T08:30:21.664Z,74.26
2018-09-16T08:32:51.078Z,74.71
2018-09-16T08:35:20.445Z,73.62
2018-09-16T08:37:49.823Z,73.27
2018-09-16T08:40:19.282Z,72.86
2018-09-16T08:42:48.667Z,71.77
2018-09-16T08:45:18.038Z,71.99
2018-09-16T08:47:47.413Z,71.27
2018-09-16T08:50:16.815Z,70.25
2018-09-16T08:52:46.174Z,70.19
2018-09-16T08:55:15.545Z,69.56
2018-09-16T08:57:44.945Z,69.80
2018-09-16T09:00:14.390Z,69.02
2018-09-16T09:02:43.802Z,68.71
2018-09-16T09:05:13.186Z,67.18
2018-09-16T09:07:42.534Z,67.03
2018-09-16T09:10:11.918Z,66.95
2018-09-16T09:12:41.309Z,66.05
2018-09-16T09:15:10.706Z,65.53
2018-09-16T09:17:40.123Z,65.17
2018-09-16T09:20:09.542Z,65.25
2018-09-16T09:22:39.042Z,65.25
2018-09-16T09:25:08.550Z,64.43
2018-09-16T09:27:38.022Z,64.73
2018-09-16T09:30:07.404Z,64.35
2018-09-16T09:32:36.799Z,63.24
2018-09-16T09:35:06.268Z,61.07
2018-09-16T09:37:35.657Z,61.63
2018-09-16T09:40:05.072Z,60.78
2018-09-16T09:42:34.490Z,60.76
2018-09-16T09:45:03.919Z,58.97
2018-09-16T09:47:33.307Z,60.35
2018-09-16T09:50:02.666Z,58.95
2018-09-16T09:52:32.162Z,58.75
2018-09-16T09:55:01.537Z,57.02
2018-09-16T09:57:30.915Z,55.37
2018-09-16T10:00:00.290Z,56.15
2018-09-16T10:02:29.660Z,56.04
2018-09-16T10:04:59.146Z,54.55
2018-09-16T10:07:28.803Z,55.17
2018-09-16T10:09:58.166Z,52.00
2018-09-16T10:12:27.651Z,53.70
2018-09-16T10:14:57.094Z,53.90
2018-09-16T10:17:26.454Z,52.15
2018-09-16T10:19:55.814Z,53.54
2018-09-16T10:22:25.199Z,53.28
2018-09-16T10:24:54.571Z,53.10
2018-09-16T10:27:23.957Z,54.09
2018-09-16T10:29:53.370Z,51.66
2018-09-16T10:32:22.735Z,52.76
2018-09-16T10:34:52.115Z,51.80
2018-09-16T10:37:21.498Z,51.06
2018-09-16T10:39:50.926Z,51.28
2018-09-16T10:42:20.398Z,51.76
2018-09-16T10:44:49.779Z,52.18
2018-09-16T10:47:19.130Z,51.36
2018-09-16T10:49:48.542Z,50.58
2018-09-16T10:52:17.987Z,51.26
2018-09-16T10:54:47.423Z,49.47
2018-09-16T10:57:16.856Z,49.91
2018-09-16T10:59:46.400Z,50.24
2018-09-16T11:02:15.782Z,48.83
2018-09-16T11:04:45.177Z,47.80
2018-09-16T11:07:16.276Z,48.12
2018-09-16T11:09:45.714Z,47.23
2018-09-16T11:12:15.085Z,46.91
2018-09-16T11:14:44.802Z,47.01
2018-09-16T11:17:14.227Z,46.47
2018-09-16T11:19:43.679Z,46.21
2018-09-16T11:22:13.156Z,45.63
2018-09-16T11:24:42.463Z,45.42
2018-09-16T11:27:11.846Z,44.25
2018-09-16T11:29:41.298Z,45.56
2018-09-16T11:32:13.560Z,45.03
2018-09-16T11:34:42.994Z,46.47
2018-09-16T11:37:12.418Z,45.08
2018-09-16T11:39:41.798Z,45.05
2018-09-16T11:42:11.184Z,44.76
2018-09-16T11:44:40.551Z,44.87
2018-09-16T11:47:09.966Z,43.37
2018-09-16T11:49:39.345Z,44.84
2018-09-16T11:52:08.726Z,45.61
2018-09-16T11:54:38.109Z,45.59
2018-09-16T11:57:07.775Z,43.94
2018-09-16T11:59:37.148Z,42.17
2018-09-16T12:02:06.640Z,42.61
2018-09-16T12:04:35.946Z,42.86
2018-09-16T12:07:05.343Z,42.95
2018-09-16T12:09:34.726Z,42.90
2018-09-16T12:12:04.109Z,43.61
2018-09-16T12:14:33.511Z,42.46
2018-09-16T12:17:03.126Z,42.23
2018-09-16T12:19:32.528Z,41.77
2018-09-16T12:22:01.903Z,41.52
2018-09-16T12:24:31.411Z,41.38
2018-09-16T12:27:00.818Z,41.73
2018-09-16T12:29:30.195Z,41.24
2018-09-16T12:31:59.647Z,42.07
2018-09-16T12:34:29.034Z,43.62
2018-09-16T12:36:58.434Z,41.00
2018-09-16T12:39:27.855Z,40.63
2018-09-16T12:41:57.302Z,40.11
2018-09-16T12:44:26.682Z,40.28
2018-09-16T12:46:56.054Z,38.71
2018-09-16T12:49:25.435Z,37.90
2018-09-16T12:51:54.885Z,38.19
2018-09-16T12:54:24.267Z,37.85
2018-09-16T12:56:53.654Z,37.47
2018-09-16T12:59:23.022Z,37.42
2018-09-16T13:01:52.406Z,38.62
2018-09-16T13:04:21.851Z,37.40
2018-09-16T13:06:51.186Z,37.55
2018-09-16T13:09:20.571Z,37.32
2018-09-16T13:11:49.955Z,37.86
2018-09-16T13:14:19.324Z,36.78
2018-09-16T13:16:48.704Z,37.08
2018-09-16T13:19:18.116Z,34.77
2018-09-16T13:21:47.498Z,36.66
2018-09-16T13:24:16.919Z,36.31
2018-09-16T13:26:46.294Z,36.57
2018-09-16T13:29:15.687Z,36.00
2018-09-16T13:31:45.357Z,33.43
2018-09-16T13:34:14.778Z,33.42
2018-09-16T13:36:44.142Z,33.69
2018-09-16T13:39:13.519Z,33.58
2018-09-16T13:41:42.918Z,33.86
2018-09-16T13:44:12.281Z,32.85
2018-09-16T13:46:42.107Z,32.99
2018-09-16T13:49:11.477Z,32.83
2018-09-16T13:51:42.099Z,33.08
2018-09-16T13:54:11.506Z,33.43
2018-09-16T13:56:42.102Z,34.51
2018-09-16T13:59:11.552Z,33.72
2018-09-16T14:01:42.154Z,33.62
2018-09-16T14:04:11.573Z,33.10
2018-09-16T14:06:42.291Z,33.74
2018-09-16T14:09:13.110Z,34.01
2018-09-16T14:11:42.871Z,32.97
2018-09-16T14:14:12.266Z,32.88
2018-09-16T14:16:42.194Z,31.99
2018-09-16T14:19:11.628Z,32.96
2018-09-16T14:21:42.210Z,33.41
2018-09-16T14:24:11.606Z,33.99
2018-09-16T14:26:42.273Z,33.04
2018-09-16T14:29:11.739Z,32.29
2018-09-16T14:31:42.251Z,32.73
2018-09-16T14:34:11.646Z,32.95
2018-09-16T14:36:42.282Z,34.18
2018-09-16T14:39:11.656Z,33.83
2018-09-16T14:41:42.254Z,33.99
2018-09-16T14:44:11.645Z,34.39
2018-09-16T14:47:40.294Z,32.67
2018-09-16T14:50:09.700Z,33.13
2018-09-16T14:52:39.067Z,32.73
2018-09-16T14:55:08.464Z,31.56
2018-09-16T14:57:37.846Z,32.04
2018-09-16T15:00:07.262Z,31.46
2018-09-16T15:02:36.644Z,31.53
2018-09-16T15:05:06.115Z,33.02
2018-09-16T15:07:35.507Z,31.83
2018-09-16T15:10:04.997Z,32.91
2018-09-16T15:12:34.437Z,31.98
2018-09-16T15:15:03.844Z,31.99
2018-09-16T15:17:33.302Z,32.49
2018-09-16T15:20:02.764Z,33.12
2018-09-16T15:22:32.131Z,33.16
2018-09-16T15:25:01.562Z,34.18
2018-09-16T15:27:30.971Z,33.45
2018-09-16T15:30:00.363Z,36.46
2018-09-16T15:32:30.014Z,36.48
2018-09-16T15:34:59.398Z,36.87
2018-09-16T15:37:29.734Z,34.50
2018-09-16T15:39:59.118Z,35.22
2018-09-16T15:42:28.511Z,35.02
2018-09-16T15:44:57.883Z,35.67
2018-09-16T15:47:27.274Z,33.88
2018-09-16T15:49:56.667Z,34.39
2018-09-16T15:52:26.238Z,34.86
2018-09-16T15:54:55.625Z,34.59
2018-09-16T15:57:25.011Z,36.21
2018-09-16T15:59:54.396Z,37.53
2018-09-16T16:02:23.955Z,36.73
2018-09-16T16:04:53.481Z,38.49
2018-09-16T16:07:22.874Z,37.48
2018-09-16T16:09:52.266Z,39.65
2018-09-16T16:12:21.658Z,39.78
2018-09-16T16:14:51.050Z,41.34
2018-09-16T16:17:20.423Z,40.35
2018-09-16T16:19:49.818Z,38.32
2018-09-16T16:22:19.281Z,40.16
2018-09-16T16:24:48.667Z,41.58
2018-09-16T16:27:18.062Z,42.64
2018-09-16T16:29:47.458Z,44.02
2018-09-16T16:32:16.838Z,43.94
2018-09-16T16:34:46.234Z,45.45
2018-09-16T16:37:15.626Z,44.85
2018-09-16T16:39:45.015Z,45.72
2018-09-16T16:42:14.490Z,45.97
2018-09-16T16:44:43.919Z,45.66
2018-09-16T16:47:13.263Z,45.90
2018-09-16T16:49:42.640Z,46.75
2018-09-16T16:52:12.111Z,46.21
2018-09-16T16:54:41.511Z,46.22
2018-09-16T16:57:10.898Z,47.97
2018-09-16T16:59:40.290Z,47.72
2018-09-16T17:02:09.674Z,45.97
2018-09-16T17:04:39.155Z,48.85
2018-09-16T17:07:08.871Z,48.50
2018-09-16T17:09:38.354Z,48.91
2018-09-16T17:12:07.790Z,49.80
2018-09-16T17:14:37.230Z,51.85
2018-09-16T17:17:06.629Z,52.38
2018-09-16T17:19:36.011Z,52.61
2018-09-16T17:22:05.398Z,54.76
2018-09-16T17:24:34.763Z,55.16
2018-09-16T17:27:04.154Z,55.55
2018-09-16T17:29:33.592Z,56.24
2018-09-16T17:32:02.970Z,56.21
2018-09-16T17:34:32.484Z,55.41
2018-09-16T17:37:01.944Z,54.73
2018-09-16T17:39:31.587Z,55.51
2018-09-16T17:42:01.734Z,56.84
2018-09-16T17:44:31.537Z,57.31
2018-09-16T17:47:01.216Z,57.87
2018-09-16T17:49:31.303Z,58.66
2018-09-16T17:52:00.982Z,59.46
2018-09-16T17:54:32.402Z,59.82
2018-09-16T17:57:02.230Z,59.75
2018-09-16T17:59:31.937Z,60.38
2018-09-16T18:02:02.079Z,60.58
2018-09-16T18:04:31.784Z,61.36
2018-09-16T18:07:02.071Z,62.17
2018-09-16T18:09:32.345Z,62.45
2018-09-16T18:12:03.775Z,63.43
2018-09-16T18:14:35.354Z,61.42
2018-09-16T18:17:06.373Z,61.13
2018-09-16T18:19:37.322Z,62.85
2018-09-16T18:22:09.346Z,61.23
2018-09-16T18:24:41.757Z,62.54
2018-09-16T18:27:14.654Z,61.69
2018-09-16T18:29:47.391Z,61.78
2018-09-16T18:32:19.949Z,61.45
2018-09-16T18:34:53.226Z,62.16
2018-09-16T18:37:26.326Z,62.57
2018-09-16T18:39:58.892Z,62.99
2018-09-16T18:42:31.743Z,64.14
2018-09-16T18:45:04.367Z,64.55
2018-09-16T18:47:37.114Z,65.03
2018-09-16T18:50:10.251Z,65.25
2018-09-16T18:52:43.021Z,65.93
2018-09-16T18:55:15.998Z,65.62
2018-09-16T18:57:48.775Z,66.20
2018-09-16T19:00:21.594Z,66.62
2018-09-16T19:02:54.268Z,66.40
2018-09-16T19:05:26.978Z,66.50
2018-09-16T19:07:59.723Z,65.98
2018-09-16T19:10:32.340Z,65.89
2018-09-16T19:13:05.027Z,66.59
2018-09-16T19:15:37.796Z,67.26
2018-09-16T19:18:10.754Z,67.22
2018-09-16T19:20:43.340Z,67.20
2018-09-16T19:23:15.879Z,67.05
2018-09-16T19:25:48.908Z,67.39
2018-09-16T19:28:21.530Z,67.29
2018-09-16T19:30:54.207Z,67.25
2018-09-16T19:33:27.176Z,67.89
2018-09-16T19:35:59.882Z,67.68
2018-09-16T19:38:32.590Z,69.01
2018-09-16T19:41:05.215Z,68.68
2018-09-16T19:43:38.701Z,68.64
2018-09-16T19:46:11.926Z,69.20
2018-09-16T19:48:44.625Z,70.40
2018-09-16T19:51:17.153Z,69.99
2018-09-16T19:53:49.962Z,70.70
2018-09-16T19:56:22.596Z,71.17
2018-09-16T19:58:55.302Z,71.22
2018-09-16T20:01:27.772Z,71.43
2018-09-16T20:04:00.447Z,72.64
2018-09-16T20:06:33.132Z,72.83
2018-09-16T20:09:06.662Z,72.03
2018-09-16T20:11:39.876Z,72.25
2018-09-16T20:14:12.568Z,72.31
2018-09-16T20:16:44.938Z,73.29
2018-09-16T20:19:17.589Z,73.60
2018-09-16T20:21:50.332Z,73.44
2018-09-16T20:24:22.882Z,73.23
2018-09-16T20:26:54.699Z,74.04
2018-09-16T20:29:24.625Z,74.34
2018-09-16T20:31:55.250Z,73.23
2018-09-16T20:34:25.817Z,73.42
2018-09-16T20:36:55.556Z,73.73
2018-09-16T20:39:25.248Z,73.50
2018-09-16T20:41:54.980Z,75.31
2018-09-16T20:44:24.794Z,75.18
2018-09-16T20:46:54.823Z,74.76
2018-09-16T20:49:24.802Z,75.20
2018-09-16T20:51:55.064Z,75.42
2018-09-16T20:54:24.723Z,75.99
2018-09-16T20:56:54.350Z,75.52
2018-09-16T20:59:24.070Z,76.44
2018-09-16T21:01:53.926Z,75.99
2018-09-16T21:04:23.611Z,75.95
2018-09-16T21:06:53.200Z,76.25
2018-09-16T21:09:22.946Z,76.85
2018-09-16T21:11:52.599Z,77.12
2018-09-16T21:14:22.370Z,76.63
2018-09-16T21:16:51.950Z,77.20
2018-09-16T21:19:21.614Z,77.47
2018-09-16T21:21:51.470Z,76.98
2018-09-16T21:24:21.178Z,78.29
2018-09-16T21:26:50.777Z,78.02
2018-09-16T21:29:20.327Z,77.89
2018-09-16T21:31:50.087Z,77.85
2018-09-16T21:34:19.657Z,78.98
2018-09-16T21:36:49.268Z,79.51
2018-09-16T21:39:18.885Z,79.83
2018-09-16T21:41:48.539Z,78.69
2018-09-16T21:44:18.166Z,79.83
2018-09-16T21:46:47.759Z,80.53
2018-09-16T21:49:17.229Z,80.05
2018-09-16T21:51:46.606Z,80.36
2018-09-16T21:54:16.226Z,80.24
2018-09-16T21:56:45.832Z,80.13
2018-09-16T21:59:15.263Z,80.64
2018-09-16T22:01:45.950Z,80.52
2018-09-16T22:04:15.330Z,80.16
2018-09-16T22:06:45.754Z,79.23
2018-09-16T22:09:15.150Z,79.53
2018-09-16T22:11:45.761Z,80.11
2018-09-16T22:14:15.170Z,80.97
2018-09-16T22:16:45.770Z,80.47
2018-09-16T22:19:15.380Z,80.35
2018-09-16T22:21:45.982Z,81.02
2018-09-16T22:24:15.616Z,80.64
2018-09-16T22:26:46.180Z,81.18
2018-09-16T22:29:15.803Z,81.18
2018-09-16T22:31:46.168Z,81.22
2018-09-16T22:34:15.819Z,81.83
2018-09-16T22:36:46.489Z,81.45
2018-09-16T22:39:15.874Z,81.39
2018-09-16T22:41:45.990Z,80.99
2018-09-16T22:44:15.374Z,80.55
2018-09-16T22:46:45.979Z,80.75
2018-09-16T22:49:15.373Z,80.85
2018-09-16T22:51:46.010Z,81.12
2018-09-16T22:54:15.574Z,81.47
2018-09-16T22:56:46.022Z,81.05
2018-09-16T22:59:15.403Z,80.54
2018-09-16T23:01:46.025Z,81.00
2018-09-16T23:04:15.489Z,82.06
2018-09-16T23:06:46.026Z,82.24
2018-09-16T23:09:15.442Z,81.53
2018-09-16T23:11:46.066Z,81.57
2018-09-16T23:14:15.451Z,82.12
2018-09-16T23:16:46.198Z,82.48
2018-09-16T23:19:15.576Z,83.01
2018-09-16T23:21:45.970Z,83.58
2018-09-16T23:24:15.391Z,83.33
2018-09-16T23:26:46.009Z,83.52
2018-09-16T23:29:15.402Z,83.15
2018-09-16T23:31:46.008Z,83.09
2018-09-16T23:34:15.394Z,83.91
2018-09-16T23:36:45.996Z,84.60
2018-09-16T23:39:15.502Z,84.54
2018-09-16T23:41:46.162Z,84.05
2018-09-16T23:44:15.598Z,83.90
2018-09-16T23:46:46.274Z,83.50
2018-09-16T23:49:15.674Z,82.97
2018-09-16T23:51:46.267Z,82.98
2018-09-16T23:54:15.670Z,82.93
2018-09-16T23:56:46.279Z,83.07
2018-09-16T23:59:15.671Z,82.71
